Time;durP1;ratioP1;P1;durP2;ratioP2;P2;SDS_P1;SDS_P2;PMS_P1;PMS_P2;Temp;Humidity;BMP_temperature;BMP_pressure;BME280_temperature;BME280_humidity;BME280_pressure;Samples;Min_cycle;Max_cycle;Signal;HPM_P1;HPM_P2
2022/09/04 04:01:16;;;;;;;;;;;16.00;97.40;;;;;;5652789;23;20057;-87
2022/09/04 04:03:45;;;;;;;6.72;2.10;;;16.00;98.40;;;;;;4888111;29;20370;-85
2022/09/04 04:06:41;;;;;;;6.38;1.95;;;16.00;98.10;;;;;;4883865;29;20044;-88
2022/09/04 04:09:27;;;;;;;5.20;2.00;;;15.90;98.70;;;;;;4910473;29;20052;-84
2022/09/04 04:12:14;;;;;;;5.53;2.20;;;15.90;99.20;;;;;;4920475;29;20039;-85
2022/09/04 04:14:46;;;;;;;2.90;1.90;;;15.90;99.40;;;;;;4895451;29;20059;-87
2022/09/04 04:17:33;;;;;;;5.15;2.13;;;15.90;99.50;;;;;;4904835;29;20506;-84
2022/09/04 04:20:41;;;;;;;4.43;2.00;;;15.90;99.70;;;;;;4899865;29;20059;-86
2022/09/04 04:23:23;;;;;;;3.25;2.05;;;15.90;99.90;;;;;;4885018;29;20108;-87
2022/09/04 04:26:09;;;;;;;4.82;2.20;;;15.80;99.90;;;;;;4919496;29;20076;-84
2022/09/04 04:29:11;;;;;;;5.97;2.15;;;15.80;99.90;;;;;;4910341;29;20040;-85
2022/09/04 04:32:12;;;;;;;5.85;1.95;;;15.70;99.90;;;;;;4877458;29;20508;-85
2022/09/04 04:35:02;;;;;;;6.93;2.10;;;15.70;99.90;;;;;;4910114;29;20104;-89
2022/09/04 04:37:33;;;;;;;4.63;2.20;;;15.70;99.90;;;;;;4912859;29;20049;-85
2022/09/04 04:40:13;;;;;;;6.65;2.38;;;15.70;99.90;;;;;;4910983;29;20040;-85
2022/09/04 04:43:08;;;;;;;3.75;2.03;;;15.70;99.90;;;;;;4910082;29;20049;-88
2022/09/04 04:45:50;;;;;;;6.22;2.10;;;15.60;99.90;;;;;;4877849;29;20103;-83
2022/09/04 04:48:25;;;;;;;4.93;1.90;;;15.60;99.90;;;;;;4906685;29;20040;-87
2022/09/04 04:51:16;;;;;;;4.88;2.03;;;15.60;99.90;;;;;;4923350;29;20515;-84
2022/09/04 04:53:56;;;;;;;5.10;2.15;;;15.60;99.90;;;;;;4890567;29;20086;-83
2022/09/04 04:56:44;;;;;;;6.00;2.45;;;15.60;99.90;;;;;;4912839;29;20111;-83
2022/09/04 04:59:22;;;;;;;6.80;2.25;;;15.60;99.90;;;;;;4905023;29;20040;-88
2022/09/04 05:02:27;;;;;;;7.85;2.70;;;15.60;99.90;;;;;;4912827;29;20047;-87
2022/09/04 05:05:01;;;;;;;2.90;1.70;;;15.60;99.90;;;;;;4914236;29;20469;-87
2022/09/04 05:07:52;;;;;;;4.90;2.30;;;15.60;99.90;;;;;;4912008;29;20051;-83
2022/09/04 05:10:28;;;;;;;5.63;2.50;;;15.50;99.90;;;;;;4901852;29;20090;-82
2022/09/04 05:12:57;;;;;;;6.85;2.28;;;15.50;99.90;;;;;;4908165;29;20068;-87
2022/09/04 05:15:32;;;;;;;3.33;2.08;;;15.50;99.90;;;;;;4891320;29;20492;-85
2022/09/04 05:18:16;;;;;;;5.50;2.30;;;15.50;99.90;;;;;;4920836;29;20107;-87
2022/09/04 05:20:56;;;;;;;6.10;2.20;;;15.50;99.90;;;;;;4899127;29;20113;-85
2022/09/04 05:23:47;;;;;;;4.45;2.13;;;15.50;99.90;;;;;;4915983;29;20657;-87
2022/09/04 05:26:29;;;;;;;5.60;2.10;;;15.50;99.90;;;;;;4916388;29;20035;-84
2022/09/04 05:29:05;;;;;;;3.47;2.17;;;15.50;99.90;;;;;;4905646;29;20491;-86
2022/09/04 05:31:49;;;;;;;4.20;2.40;;;15.50;99.90;;;;;;4881649;29;20072;-84
2022/09/04 05:34:33;;;;;;;5.57;2.40;;;15.50;99.90;;;;;;4894474;29;20044;-86
2022/09/04 05:37:05;;;;;;;4.35;2.42;;;15.50;99.90;;;;;;4920976;29;20043;-83
2022/09/04 05:39:53;;;;;;;6.93;2.30;;;15.50;99.90;;;;;;4900023;29;20168;-86
2022/09/04 05:42:42;;;;;;;8.00;2.65;;;15.50;99.90;;;;;;4905029;29;20036;-88
2022/09/04 05:45:10;;;;;;;7.28;2.20;;;15.60;99.90;;;;;;4913630;29;20047;-80
2022/09/04 05:48:03;;;;;;;8.55;2.30;;;15.60;99.90;;;;;;4913552;29;20084;-83
2022/09/04 05:50:50;;;;;;;4.65;2.00;;;15.60;99.90;;;;;;4893314;29;20037;-89
2022/09/04 05:53:16;;;;;;;5.00;2.25;;;15.60;99.90;;;;;;4895886;29;20142;-87
2022/09/04 05:55:50;;;;;;;5.93;2.05;;;15.60;99.90;;;;;;4907572;29;20055;-86
2022/09/04 05:58:35;;;;;;;5.57;2.42;;;15.60;99.90;;;;;;4882113;29;20042;-85
2022/09/04 06:01:06;;;;;;;5.78;2.50;;;15.70;99.90;;;;;;4877360;29;20044;-87
2022/09/04 06:04:10;;;;;;;3.85;2.17;;;15.70;99.90;;;;;;4882600;29;20568;-85
2022/09/04 06:06:58;;;;;;;7.95;2.53;;;15.70;99.90;;;;;;4895129;29;20475;-83
2022/09/04 06:09:35;;;;;;;4.28;2.13;;;15.70;99.90;;;;;;4882725;29;20469;-86
2022/09/04 06:12:14;;;;;;;4.20;2.42;;;15.80;99.90;;;;;;4890631;29;20036;-87
2022/09/04 06:15:08;;;;;;;10.70;2.85;;;15.80;99.90;;;;;;4913001;29;20116;-84
2022/09/04 06:17:54;;;;;;;6.10;2.30;;;15.80;99.90;;;;;;4900192;29;20044;-89
2022/09/04 06:20:29;;;;;;;;;;;15.80;99.90;;;;;;4888311;29;20044;-88
2022/09/04 06:23:02;;;;;;;4.97;2.13;;;15.80;99.90;;;;;;4896166;29;19966;-86
2022/09/04 06:25:42;;;;;;;6.65;2.60;;;15.80;99.90;;;;;;4914826;29;20040;-84
2022/09/04 06:28:17;;;;;;;6.40;2.33;;;15.80;99.90;;;;;;4900177;29;20115;-85
2022/09/04 06:31:17;;;;;;;5.90;2.80;;;15.90;99.90;;;;;;4919939;29;20095;-88
2022/09/04 06:33:51;;;;;;;4.70;2.22;;;15.90;99.90;;;;;;4903657;29;20063;-87
2022/09/04 06:36:44;;;;;;;6.00;2.85;;;15.90;99.90;;;;;;4894327;29;20041;-86
2022/09/04 06:39:15;;;;;;;5.20;2.45;;;15.90;99.90;;;;;;4909043;29;20072;-81
2022/09/04 06:42:15;;;;;;;6.05;2.40;;;16.00;99.90;;;;;;4904530;29;20044;-82
2022/09/04 06:44:59;;;;;;;10.77;2.72;;;16.00;99.90;;;;;;4897656;29;20077;-87
2022/09/04 06:47:39;;;;;;;8.35;2.70;;;16.10;99.90;;;;;;4900672;29;20195;-83
2022/09/04 06:50:26;;;;;;;5.78;2.67;;;16.10;99.90;;;;;;4898982;29;20400;-86
2022/09/04 06:53:17;;;;;;;7.88;2.50;;;16.20;99.90;;;;;;4901841;29;20449;-86
2022/09/04 06:56:05;;;;;;;6.13;2.90;;;16.20;99.90;;;;;;4894727;29;20048;-85
2022/09/04 06:59:03;;;;;;;6.72;3.00;;;16.30;99.90;;;;;;4896998;29;20048;-83
2022/09/04 07:02:12;;;;;;;8.23;2.80;;;16.40;99.90;;;;;;4890373;29;20044;-85
2022/09/04 07:04:42;;;;;;;4.13;2.40;;;16.50;99.90;;;;;;4887662;29;20061;-85
2022/09/04 07:07:29;;;;;;;6.38;2.40;;;16.50;99.90;;;;;;4910751;29;20040;-81
2022/09/04 07:10:06;;;;;;;5.18;2.60;;;16.60;99.90;;;;;;4890611;29;20561;-86
2022/09/04 07:12:38;;;;;;;4.65;2.33;;;16.70;99.90;;;;;;4894287;29;20075;-82
2022/09/04 07:15:30;;;;;;;5.10;2.38;;;16.80;99.90;;;;;;4888936;29;20100;-85
2022/09/04 07:18:33;;;;;;;4.55;2.60;;;16.80;99.90;;;;;;4913984;29;20051;-87
2022/09/04 07:21:25;;;;;;;6.18;2.55;;;16.90;99.90;;;;;;4894260;29;20519;-87
2022/09/04 07:24:03;;;;;;;4.70;2.63;;;17.00;99.90;;;;;;4873000;29;20063;-85
2022/09/04 07:26:40;;;;;;;7.43;2.67;;;17.10;99.90;;;;;;4895388;29;20040;-84
2022/09/04 07:29:20;;;;;;;7.13;2.38;;;17.20;99.90;;;;;;4896787;29;20032;-85
2022/09/04 07:32:16;;;;;;;4.35;2.33;;;17.30;99.90;;;;;;4900093;29;20139;-85
2022/09/04 07:35:10;;;;;;;6.68;2.45;;;17.40;99.90;;;;;;4895461;29;20052;-83
2022/09/04 07:37:57;;;;;;;5.15;2.30;;;17.50;99.90;;;;;;4911622;29;20047;-86
2022/09/04 07:40:31;;;;;;;6.45;2.05;;;17.60;99.90;;;;;;4906571;29;20051;-86
2022/09/04 07:43:04;;;;;;;4.72;2.47;;;17.60;99.90;;;;;;4920689;29;20044;-86
2022/09/04 07:45:36;;;;;;;5.63;2.53;;;17.70;99.90;;;;;;4904765;29;20045;-80
2022/09/04 07:48:10;;;;;;;4.65;2.65;;;17.80;99.90;;;;;;4893948;29;20129;-83
2022/09/04 07:51:03;;;;;;;3.40;2.40;;;17.90;99.90;;;;;;4895591;29;20032;-87
2022/09/04 07:53:41;;;;;;;4.85;2.47;;;18.00;99.90;;;;;;4900475;29;20119;-84
2022/09/04 07:56:30;;;;;;;4.88;2.63;;;18.10;99.90;;;;;;4896552;29;20046;-85
2022/09/04 07:59:08;;;;;;;6.82;2.58;;;18.20;99.90;;;;;;4903785;29;20072;-84
2022/09/04 08:02:05;;;;;;;4.70;2.15;;;18.30;99.90;;;;;;4904913;29;20529;-84
2022/09/04 08:04:43;;;;;;;8.45;2.72;;;18.40;99.90;;;;;;4881447;29;20400;-87
2022/09/04 08:07:22;;;;;;;3.85;2.65;;;18.50;99.90;;;;;;4910855;29;20164;-85
2022/09/04 08:10:06;;;;;;;3.67;2.40;;;18.60;99.90;;;;;;4901758;29;20036;-85
2022/09/04 08:12:41;;;;;;;7.15;2.58;;;18.70;99.90;;;;;;4894444;29;20489;-86
2022/09/04 08:15:20;;;;;;;4.28;2.78;;;18.80;99.90;;;;;;4899959;29;20040;-88
2022/09/04 08:17:52;;;;;;;7.22;2.70;;;18.90;99.90;;;;;;4869289;29;20044;-88
2022/09/04 08:20:58;;;;;;;8.25;3.20;;;19.00;99.90;;;;;;4882806;29;20045;-88
2022/09/04 08:23:32;;;;;;;10.23;2.90;;;19.20;99.90;;;;;;4881609;29;20451;-78
2022/09/04 08:26:31;;;;;;;7.95;2.60;;;19.20;99.90;;;;;;4867555;29;20404;-84
2022/09/04 08:29:41;;;;;;;5.82;2.75;;;19.30;99.90;;;;;;4900473;29;20041;-86
2022/09/04 08:32:46;;;;;;;5.72;3.35;;;19.40;99.90;;;;;;4898767;29;20511;-85
2022/09/04 08:35:23;;;;;;;5.05;2.67;;;19.50;99.90;;;;;;4882879;29;20115;-85
2022/09/04 08:38:20;;;;;;;5.70;2.53;;;19.70;99.90;;;;;;4882871;29;20085;-86
2022/09/04 08:41:06;;;;;;;5.70;2.83;;;19.80;99.90;;;;;;4900681;29;20049;-85
2022/09/04 08:44:02;;;;;;;3.90;2.92;;;20.00;99.90;;;;;;4886489;29;20398;-86
2022/09/04 08:46:33;;;;;;;5.50;2.90;;;20.10;99.90;;;;;;4903440;29;20055;-85
2022/09/04 08:49:25;;;;;;;4.68;2.85;;;20.20;99.90;;;;;;4903707;29;20536;-85
2022/09/04 08:52:29;;;;;;;6.25;2.67;;;20.40;99.90;;;;;;4865744;29;20089;-88
2022/09/04 08:55:18;;;;;;;4.97;2.63;;;20.50;99.90;;;;;;4886214;29;20055;-78
2022/09/04 08:57:55;;;;;;;4.82;2.90;;;20.70;99.90;;;;;;4903269;29;20048;-87
2022/09/04 09:00:29;;;;;;;5.60;2.92;;;20.80;99.90;;;;;;4885210;29;20048;-85
2022/09/04 09:03:16;;;;;;;7.20;3.20;;;20.90;99.90;;;;;;4885334;29;20111;-83
2022/09/04 09:06:18;;;;;;;5.93;3.13;;;21.00;99.90;;;;;;4870191;29;20063;-84
2022/09/04 09:08:49;;;;;;;4.78;2.90;;;21.30;99.90;;;;;;4885539;29;20054;-85
2022/09/04 09:11:33;;;;;;;3.70;2.80;;;21.40;99.90;;;;;;4909580;29;20054;-82
2022/09/04 09:14:20;;;;;;;4.00;2.80;;;21.50;99.90;;;;;;4921659;29;20047;-86
2022/09/04 09:17:12;;;;;;;7.85;2.78;;;21.70;99.90;;;;;;4904793;29;20052;-87
2022/09/04 09:20:06;;;;;;;4.85;2.65;;;21.90;99.90;;;;;;4903568;29;20043;-85
2022/09/04 09:23:09;;;;;;;4.07;2.58;;;22.00;99.90;;;;;;4904521;29;20048;-88
2022/09/04 09:25:47;;;;;;;5.60;2.50;;;22.10;99.90;;;;;;4921781;29;20433;-86
2022/09/04 09:28:44;;;;;;;3.88;2.72;;;22.20;99.90;;;;;;4921540;29;20544;-84
2022/09/04 09:31:14;;;;;;;4.35;2.25;;;22.40;99.90;;;;;;4921940;29;20144;-86
2022/09/04 09:34:04;;;;;;;4.40;2.80;;;22.60;99.90;;;;;;4904263;29;20048;-88
2022/09/04 09:37:03;;;;;;;6.20;2.63;;;22.70;99.90;;;;;;4904269;29;20046;-83
2022/09/04 09:39:59;;;;;;;3.42;2.33;;;22.80;99.90;;;;;;4888538;29;20400;-88
2022/09/04 09:42:44;;;;;;;;;;;22.90;99.90;;;;;;4921383;29;20097;-87
2022/09/04 09:45:35;;;;;;;3.88;2.20;;;23.10;99.90;;;;;;4920699;29;19927;-85
2022/09/04 09:48:19;;;;;;;4.38;2.20;;;23.30;99.90;;;;;;4902962;29;20095;-87
2022/09/04 09:50:47;;;;;;;6.32;2.17;;;23.40;99.90;;;;;;4904137;29;20044;-84
2022/09/04 09:53:19;;;;;;;3.03;2.40;;;23.60;99.80;;;;;;4902951;29;20123;-85
2022/09/04 09:56:10;;;;;;;7.50;2.30;;;23.70;99.50;;;;;;4904160;29;20444;-85
2022/09/04 09:59:03;;;;;;;4.68;2.20;;;23.70;98.40;;;;;;4888046;29;20055;-88
2022/09/04 10:01:56;;;;;;;7.28;2.10;;;23.80;98.60;;;;;;4903585;29;20044;-89
2022/09/04 10:04:21;;;;;;;2.90;1.92;;;23.90;98.90;;;;;;4920979;29;20044;-87
2022/09/04 10:07:09;;;;;;;5.65;2.50;;;24.10;98.40;;;;;;4920479;29;20036;-84
2022/09/04 10:09:43;;;;;;;6.32;2.03;;;24.20;98.10;;;;;;4904430;29;20039;-84
2022/09/04 10:12:25;;;;;;;3.33;2.00;;;24.30;98.20;;;;;;4903136;29;20086;-87
2022/09/04 10:15:00;;;;;;;5.10;2.00;;;24.40;98.60;;;;;;4903350;29;20087;-83
2022/09/04 10:17:58;;;;;;;5.13;1.88;;;24.50;97.90;;;;;;4903118;29;20143;-85
2022/09/04 10:20:52;;;;;;;6.25;2.42;;;24.50;97.50;;;;;;4902680;29;20046;-81
2022/09/04 10:23:40;;;;;;;4.57;2.00;;;24.50;97.20;;;;;;4902203;29;20103;-89
2022/09/04 10:26:18;;;;;;;3.88;2.03;;;24.50;97.20;;;;;;4903151;29;20051;-86
2022/09/04 10:29:10;;;;;;;2.90;2.00;;;24.50;97.00;;;;;;4921767;29;20039;-85
2022/09/04 10:32:23;;;;;;;3.28;1.98;;;24.50;97.40;;;;;;4922034;29;20047;-84
2022/09/04 10:34:54;;;;;;;3.20;1.85;;;24.70;97.30;;;;;;4933633;29;20059;-87
2022/09/04 10:38:04;;;;;;;4.80;2.10;;;24.80;96.90;;;;;;4921823;29;20055;-87
2022/09/04 10:41:00;;;;;;;4.70;1.98;;;24.90;96.70;;;;;;4938893;29;20055;-86
2022/09/04 10:43:44;;;;;;;3.40;2.03;;;25.20;96.80;;;;;;4906250;29;20172;-83
2022/09/04 10:46:16;;;;;;;4.88;2.05;;;25.30;96.60;;;;;;4940175;29;20366;-85
2022/09/04 10:49:14;;;;;;;3.83;1.98;;;25.50;95.90;;;;;;4922332;29;20040;-86
2022/09/04 10:51:48;;;;;;;4.47;1.85;;;25.60;94.70;;;;;;4922153;29;20501;-89
2022/09/04 10:54:53;;;;;;;6.18;1.77;;;25.60;95.30;;;;;;4939973;29;20043;-87
2022/09/04 10:57:24;;;;;;;3.25;2.00;;;25.70;95.20;;;;;;4923115;29;20047;-87
2022/09/04 11:00:04;;;;;;;3.05;1.83;;;25.80;94.80;;;;;;4939917;29;20044;-83
2022/09/04 11:02:55;;;;;;;2.97;1.70;;;25.90;94.60;;;;;;4939861;29;20066;-86
2022/09/04 11:05:34;;;;;;;4.22;1.90;;;26.00;94.10;;;;;;4939073;29;20094;-85
2022/09/04 11:08:22;;;;;;;4.57;1.80;;;26.10;94.70;;;;;;4907315;29;20397;-86
2022/09/04 11:11:06;;;;;;;4.07;2.22;;;26.20;93.80;;;;;;4939037;29;20531;-89
2022/09/04 11:14:02;;;;;;;2.83;1.67;;;26.30;93.90;;;;;;4906648;29;20035;-87
2022/09/04 11:17:19;;;;;;;2.70;1.65;;;26.30;93.60;;;;;;4906814;29;20047;-88
2022/09/04 11:20:22;;;;;;;2.92;1.70;;;26.40;93.60;;;;;;4910959;29;20075;-88
2022/09/04 11:23:29;;;;;;;3.72;1.70;;;26.50;93.50;;;;;;4939820;29;20123;-88
2022/09/04 11:26:27;;;;;;;2.70;1.65;;;26.70;93.40;;;;;;4849486;29;20045;-88
2022/09/04 11:29:17;;;;;;;2.50;1.85;;;26.70;92.90;;;;;;4880825;29;20425;-89
2022/09/04 11:32:14;;;;;;;3.42;1.92;;;26.80;92.70;;;;;;4932111;29;20051;-87
2022/09/04 11:34:49;;;;;;;4.43;1.73;;;26.80;91.90;;;;;;4906069;29;20365;-86
2022/09/04 11:37:22;;;;;;;2.63;1.80;;;26.80;92.60;;;;;;4938691;29;20039;-86
2022/09/04 11:40:22;;;;;;;4.65;2.03;;;26.80;92.40;;;;;;4922212;29;20036;-85
2022/09/04 11:43:17;;;;;;;3.30;1.85;;;27.00;92.30;;;;;;4938148;29;20039;-84
2022/09/04 11:46:21;;;;;;;6.88;2.10;;;26.90;92.10;;;;;;4921302;29;20546;-85
2022/09/04 11:49:21;;;;;;;3.58;1.70;;;27.00;91.90;;;;;;4935706;29;20044;-87
2022/09/04 11:52:01;;;;;;;4.07;1.60;;;27.00;92.20;;;;;;4921962;29;20179;-87
2022/09/04 11:54:51;;;;;;;3.10;1.70;;;27.10;91.90;;;;;;4921394;29;20484;-84
2022/09/04 11:57:48;;;;;;;8.10;2.03;;;27.20;91.70;;;;;;4921257;29;20055;-86
2022/09/04 12:00:16;;;;;;;4.28;2.13;;;27.20;91.40;;;;;;4937875;29;20044;-85
2022/09/04 12:02:54;;;;;;;4.07;1.52;;;27.20;91.30;;;;;;4920602;29;20377;-85
2022/09/04 12:05:55;;;;;;;4.45;1.83;;;27.30;91.80;;;;;;4920934;29;20103;-87
2022/09/04 12:08:34;;;;;;;4.18;1.70;;;27.40;90.80;;;;;;4920978;29;20053;-86
2022/09/04 12:11:22;;;;;;;2.70;1.77;;;27.40;91.00;;;;;;4938025;29;20056;-85
2022/09/04 12:14:18;;;;;;;4.07;1.73;;;27.40;90.40;;;;;;4920994;29;20499;-86
2022/09/04 12:17:21;;;;;;;3.30;2.20;;;27.40;90.60;;;;;;4938488;29;20044;-86
2022/09/04 12:20:23;;;;;;;2.22;1.50;;;27.40;90.30;;;;;;4938371;29;20052;-86
2022/09/04 12:23:24;;;;;;;3.92;1.85;;;27.50;90.50;;;;;;4921659;29;20444;-85
2022/09/04 12:26:00;;;;;;;2.50;1.70;;;27.50;90.30;;;;;;4879035;29;20063;-86
2022/09/04 12:29:04;;;;;;;5.13;1.73;;;27.60;90.90;;;;;;4921031;29;20107;-78
2022/09/04 12:31:41;;;;;;;4.38;1.77;;;27.70;89.90;;;;;;4920569;29;20051;-86
2022/09/04 12:34:21;;;;;;;3.67;1.80;;;27.70;89.90;;;;;;4937190;29;20048;-85
2022/09/04 12:37:32;;;;;;;2.83;1.83;;;27.70;88.30;;;;;;4920914;29;20098;-83
2022/09/04 12:40:16;;;;;;;2.88;1.70;;;27.70;88.40;;;;;;4921106;29;20043;-85
2022/09/04 12:42:45;;;;;;;4.65;1.60;;;27.70;89.00;;;;;;4937654;29;20051;-86
2022/09/04 12:45:35;;;;;;;3.30;1.65;;;27.80;88.80;;;;;;4920190;29;20059;-84
2022/09/04 12:48:26;;;;;;;3.85;1.50;;;28.00;88.80;;;;;;4936849;29;20151;-82
2022/09/04 12:51:25;;;;;;;5.25;1.85;;;28.10;87.70;;;;;;4936607;29;20176;-84
2022/09/04 12:53:54;;;;;;;3.17;1.80;;;28.20;86.70;;;;;;4925565;29;20496;-84
2022/09/04 12:56:44;;;;;;;2.40;1.65;;;28.30;87.20;;;;;;4937213;29;20039;-85
2022/09/04 12:59:33;;;;;;;5.35;1.83;;;28.40;86.40;;;;;;4937355;29;20110;-85
2022/09/04 13:02:38;;;;;;;3.35;1.90;;;28.30;85.30;;;;;;4919019;29;20040;-86
2022/09/04 13:05:06;;;;;;;3.50;1.80;;;28.20;84.50;;;;;;4908640;29;20052;-87
2022/09/04 13:07:58;;;;;;;3.88;1.70;;;28.20;85.80;;;;;;4919455;29;20087;-85
2022/09/04 13:10:32;;;;;;;4.63;1.75;;;28.30;86.30;;;;;;4919385;29;20044;-85
2022/09/04 13:13:30;;;;;;;2.67;1.85;;;28.30;86.70;;;;;;4936862;29;20111;-84
2022/09/04 13:16:15;;;;;;;4.93;1.95;;;28.40;84.80;;;;;;4920650;29;20043;-84
2022/09/04 13:18:47;;;;;;;;;;;28.40;85.10;;;;;;4937753;29;20058;-85
2022/09/04 13:21:16;;;;;;;3.13;1.90;;;28.50;85.50;;;;;;4937035;29;19944;-84
2022/09/04 13:23:59;;;;;;;3.28;1.80;;;28.60;85.40;;;;;;4919649;29;20043;-85
2022/09/04 13:27:06;;;;;;;3.78;1.90;;;28.70;86.30;;;;;;4920147;29;20127;-84
2022/09/04 13:29:43;;;;;;;2.85;1.92;;;28.80;84.70;;;;;;4940405;29;20043;-84
2022/09/04 13:32:17;;;;;;;4.30;1.80;;;28.70;84.70;;;;;;4940412;29;20107;-85
2022/09/04 13:34:59;;;;;;;2.83;1.70;;;28.60;84.00;;;;;;4907146;29;20044;-84
2022/09/04 13:37:44;;;;;;;2.20;1.70;;;28.60;83.30;;;;;;4907087;29;20512;-86
2022/09/04 13:40:12;;;;;;;5.05;2.28;;;28.50;83.20;;;;;;4940291;29;20110;-87
2022/09/04 13:42:47;;;;;;;3.70;2.25;;;28.40;84.60;;;;;;4923034;29;20447;-85
2022/09/04 13:45:22;;;;;;;3.90;2.08;;;28.30;83.80;;;;;;4938638;29;20040;-85
2022/09/04 13:48:09;;;;;;;3.58;2.33;;;28.20;83.00;;;;;;4895779;29;20116;-83
2022/09/04 13:50:37;;;;;;;3.80;2.00;;;28.20;83.80;;;;;;4914925;29;20082;-87
2022/09/04 13:53:32;;;;;;;4.68;2.20;;;28.10;83.90;;;;;;4903456;29;20040;-84
2022/09/04 13:56:12;;;;;;;3.58;2.15;;;28.20;83.90;;;;;;4921447;29;20119;-84
2022/09/04 13:58:47;;;;;;;4.80;2.17;;;28.30;83.70;;;;;;4904260;29;20098;-85
2022/09/04 14:01:20;;;;;;;4.28;2.10;;;28.40;83.60;;;;;;4903546;29;20040;-86
2022/09/04 14:03:53;;;;;;;3.40;2.10;;;28.50;83.60;;;;;;4920811;29;20041;-84
2022/09/04 14:06:22;;;;;;;3.15;1.73;;;28.50;83.60;;;;;;4904053;29;20480;-84
2022/09/04 14:08:52;;;;;;;4.25;2.30;;;28.60;83.90;;;;;;4920555;29;20044;-85
2022/09/04 14:11:46;;;;;;;3.38;2.30;;;28.70;83.10;;;;;;4920603;29;20040;-84
2022/09/04 14:14:33;;;;;;;3.63;2.00;;;28.70;83.40;;;;;;4903449;29;20127;-83
2022/09/04 14:16:59;;;;;;;3.70;1.80;;;28.70;83.40;;;;;;4919891;29;20497;-83
2022/09/04 14:19:53;;;;;;;2.53;1.98;;;28.50;82.50;;;;;;4920070;29;20055;-86
2022/09/04 14:22:22;;;;;;;3.78;2.10;;;28.30;82.90;;;;;;4902452;29;20048;-84
2022/09/04 14:25:42;;;;;;;5.45;2.40;;;28.20;82.70;;;;;;4887158;29;20048;-85
2022/09/04 14:28:28;;;;;;;4.60;2.40;;;28.20;82.30;;;;;;4861479;29;20505;-84
2022/09/04 14:31:05;;;;;;;2.92;2.20;;;28.00;82.30;;;;;;4861433;29;20494;-84
2022/09/04 14:33:46;;;;;;;2.70;2.03;;;27.80;83.10;;;;;;4901351;29;20052;-85
2022/09/04 14:36:36;;;;;;;4.60;2.20;;;27.70;83.40;;;;;;4903347;29;20044;-84
2022/09/04 14:39:21;;;;;;;3.47;2.40;;;27.70;82.80;;;;;;4917812;29;20040;-84
2022/09/04 14:42:01;;;;;;;8.18;2.10;;;27.70;82.90;;;;;;4919054;29;20055;-82
2022/09/04 14:44:37;;;;;;;6.10;2.40;;;27.70;83.20;;;;;;4902207;29;20056;-83
2022/09/04 18:10:24;;;;;;;2.92;2.38;;;24.70;92.00;;;;;;4939640;29;20031;-83
2022/09/04 18:13:07;;;;;;;4.57;2.30;;;24.60;92.10;;;;;;4904025;29;20056;-87
2022/09/04 18:15:42;;;;;;;7.40;2.15;;;24.50;92.20;;;;;;4903874;29;20094;-86
2022/09/04 18:48:04;;;;;;;4.50;2.28;;;23.90;93.70;;;;;;5490988;23;20052;-84
2022/09/04 18:59:39;;;;;;;;;;;;;;;;;;;;;
2022/09/04 19:04:45;;;;;;;3.72;2.20;;;23.50;94.20;;;;;;4778150;26;20052;-80
2022/09/04 19:07:48;;;;;;;4.20;2.30;;;23.50;94.30;;;;;;4921832;29;20070;-86
